Libra Voyager — C6AB6 — position and weather

sailwx.info

Track history (hours):
 
Tides and Currents Weather Stations Pressure Air Temp Water Temp Dewpoint Dewpoint Depression Visibility Wind Speed Wind Dir Waves Ship Positions

Libra Voyager

Last reported at 2018-Jun-18 12:53 UTC. Time now 2018-Jun-25 10:10 UTC.
Position S 34°16' E 017°20'.

Length 330 m; draft 21 m.

Type: Tanker. MMSI: 311000011.

Date/timePositionNaut miles runAvg speedWind from/ knotsBaromVisibWave heightAir tempDewpointWater temp
2018-Jun-18 12:53S 34°16' E 017°20'510.9
2018-Jun-18 12:28S 34°17' E 017°25'5 9.8
2018-Jun-18 11:59S 34°20' E 017°29'810.1
2018-Jun-18 11:12S 34°27' E 017°35'311.6
2018-Jun-18 10:59S 34°27' E 017°38'611.8
2018-Jun-18 10:30S 34°29' E 017°44'612.1
2018-Jun-18 09:59S 34°32' E 017°51'611.9
2018-Jun-18 09:30S 34°35' E 017°57'611.9
2018-Jun-18 08:58S 34°39' E 018°03'712.2
2018-Jun-18 08:23S 34°43' E 018°10'712.1
2018-Jun-18 07:46S 34°46' E 018°19'412.1
2018-Jun-18 07:29S 34°47' E 018°23'  
2018-Jun-15 09:36S 32°54' E 031°55'112.8
2018-Jun-15 09:30S 32°54' E 031°56'812.3
2018-Jun-15 08:50S 32°51' E 032°06'512.1
2018-Jun-15 08:27S 32°50' E 032°11'512.0
2018-Jun-15 08:00S 32°48' E 032°17'611.8
2018-Jun-15 07:31S 32°46' E 032°24'611.9
2018-Jun-15 07:00S 32°44' E 032°30'611.7
2018-Jun-15 06:30S 32°42' E 032°37'611.8
2018-Jun-15 06:00S 32°40' E 032°43'611.5
2018-Jun-15 05:30S 32°37' E 032°50'611.6
2018-Jun-15 05:00S 32°35' E 032°56'612.1
2018-Jun-15 04:31S 32°33' E 033°03'612.0
2018-Jun-15 04:01S 32°31' E 033°09'612.1
2018-Jun-15 03:30S 32°28' E 033°16'612.4
2018-Jun-15 03:00S 32°25' E 033°22'612.5
2018-Jun-15 02:30S 32°23' E 033°29'712.4
2018-Jun-15 01:56S 32°20' E 033°37'512.7
2018-Jun-15 01:30S 32°18' E 033°43'812.6
2018-Jun-15 00:53S 32°15' E 033°51'  
Track history (hours):
 
Tides and Currents Weather Stations Pressure Air Temp Water Temp Dewpoint Dewpoint Depression Visibility Wind Speed Wind Dir Waves Ship Positions

Libra Voyager

Last reported at 2018-Jun-18 12:53 UTC. Time now 2018-Jun-25 10:10 UTC.
Position S 34°16' E 017°20'.

Length 330 m; draft 21 m.

Type: Tanker. MMSI: 311000011.

Date/timePositionNaut miles runAvg speedWind from/ knotsBaromVisibWave heightAir tempDewpointWater temp
2018-Jun-18 12:53S 34°16' E 017°20'510.9
2018-Jun-18 12:28S 34°17' E 017°25'5 9.8
2018-Jun-18 11:59S 34°20' E 017°29'810.1
2018-Jun-18 11:12S 34°27' E 017°35'311.6
2018-Jun-18 10:59S 34°27' E 017°38'611.8
2018-Jun-18 10:30S 34°29' E 017°44'612.1
2018-Jun-18 09:59S 34°32' E 017°51'611.9
2018-Jun-18 09:30S 34°35' E 017°57'611.9
2018-Jun-18 08:58S 34°39' E 018°03'712.2
2018-Jun-18 08:23S 34°43' E 018°10'712.1
2018-Jun-18 07:46S 34°46' E 018°19'412.1
2018-Jun-18 07:29S 34°47' E 018°23'  
2018-Jun-15 09:36S 32°54' E 031°55'112.8
2018-Jun-15 09:30S 32°54' E 031°56'812.3
2018-Jun-15 08:50S 32°51' E 032°06'512.1
2018-Jun-15 08:27S 32°50' E 032°11'512.0
2018-Jun-15 08:00S 32°48' E 032°17'611.8
2018-Jun-15 07:31S 32°46' E 032°24'611.9
2018-Jun-15 07:00S 32°44' E 032°30'611.7
2018-Jun-15 06:30S 32°42' E 032°37'611.8
2018-Jun-15 06:00S 32°40' E 032°43'611.5
2018-Jun-15 05:30S 32°37' E 032°50'611.6
2018-Jun-15 05:00S 32°35' E 032°56'612.1
2018-Jun-15 04:31S 32°33' E 033°03'612.0
2018-Jun-15 04:01S 32°31' E 033°09'612.1
2018-Jun-15 03:30S 32°28' E 033°16'612.4
2018-Jun-15 03:00S 32°25' E 033°22'612.5
2018-Jun-15 02:30S 32°23' E 033°29'712.4
2018-Jun-15 01:56S 32°20' E 033°37'512.7
2018-Jun-15 01:30S 32°18' E 033°43'812.6
2018-Jun-15 00:53S 32°15' E 033°51'  

Dump ship's entire track history